This demonstration page uses our WeatherBlox Daily Observations layout. Learn more.

36.17497, -115.13722

Hourly Observations for August 23, 2018

Temp ( °F °C ) Dew Point ( °F °C ) Humidity (%) Winds ( mph kmh ) Pressure ( in mb ) Visibility ( mi km ) Precip ( " mm )
12:53 am 00:53 Clear 88 31.1 58 14.4 36 36 ENE 7 11 29.9 1013 10 16.0934 0 0
1:53 am 01:53 Clear 87 30.6 58 14.4 37 37 ENE 6 9 29.9 1012 10 16.0934 0 0
2:53 am 02:53 Clear 86 30 59 15 40 40 E 8 13 29.9 1013 10 16.0934 0 0
3:53 am 03:53 Clear 84 28.9 60 15.6 44 44 E 9 15 29.9 1013 10 16.0934 0 0
4:53 am 04:53 Mostly Cloudy 84 28.9 60 15.6 44 44 E 7 11 29.91 1013 10 16.0934 0 0
5:53 am 05:53 Clear 83 28.3 59 15 44 44 ESE 7 11 29.92 1013 10 16.0934 0 0
6:53 am 06:53 Sunny 83 28.3 57 13.9 41 41 E 8 13 29.95 1014 10 16.0934 0 0
7:53 am 07:53 Sunny 86 30 60 15.6 42 42 ESE 8 13 29.96 1015 10 16.0934 0 0
8:53 am 08:53 Sunny 89 31.7 45 7.2 22 22 SE 10 17 29.97 1015 10 16.0934 0 0
9:53 am 09:53 Sunny 92 33.3 42 5.6 18 18 SSE 12 19 29.97 1015 10 16.0934 0 0
10:53 am 10:53 Sunny 95 35 44 6.7 17 17 SSE 9 15 29.96 1014 10 16.0934 0 0
11:53 am 11:53 Sunny 99 37.2 47 8.3 17 17 SE 16 26 29.92 1013 10 16.0934 0 0
12:53 pm 12:53 Sunny 101 38.3 47 8.3 16 16 SSW 14 22 29.89 1012 10 16.0934 0 0
1:53 pm 13:53 Sunny 99 37.2 45 7.2 16 16 SSE 12 19 29.86 1011 10 16.0934 0 0
2:53 pm 14:53 Sunny 102 38.9 45 7.2 14 14 SSW 15 24 29.82 1010 10 16.0934 0 0
3:53 pm 15:53 Sunny 102 38.9 43 6.1 13 13 WSW 15 24 29.79 1009 10 16.0934 0 0
4:53 pm 16:53 Sunny 102 38.9 41 5 12 12 SW 20 31 29.77 1008 10 16.0934 0 0
5:53 pm 17:53 Sunny 101 38.3 41 5 13 13 SW 16 26 29.75 1008 10 16.0934 0 0
6:53 pm 18:53 Sunny 99 37.2 39 3.9 12 12 WSW 13 20 29.76 1008 10 16.0934 0 0
7:53 pm 19:53 Clear 98 36.7 39 3.9 13 13 SW 12 19 29.77 1008 10 16.0934 0 0
8:53 pm 20:53 Clear 95 35 40 4.4 15 15 SSW 12 19 29.79 1009 10 16.0934 0 0
9:53 pm 21:53 Clear 94 34.4 40 4.4 15 15 SSW 8 13 29.8 1009 10 16.0934 0 0
10:53 pm 22:53 Clear 92 33.3 39 3.9 16 16 SSW 7 11 29.8 1009 10 16.0934 0 0
11:53 pm 23:53 Clear 90 32.2 39 3.9 17 17 S 10 17 29.81 1009 10 16.0934 0 0

Powered by AerisWeather